createdAt,value
2022-12-19T00:01:16.693Z,11.60
2022-12-19T00:03:44.317Z,11.23
2022-12-19T00:06:10.884Z,10.87
2022-12-19T00:08:37.455Z,11.13
2022-12-19T00:11:04.099Z,11.37
2022-12-19T00:13:31.245Z,11.00
2022-12-19T00:16:04.173Z,12.07
2022-12-19T00:18:30.881Z,10.73
2022-12-19T00:20:58.679Z,11.27
2022-12-19T00:23:25.253Z,12.10
2022-12-19T00:25:51.856Z,11.20
2022-12-19T00:28:18.756Z,12.30
2022-12-19T00:30:47.034Z,12.63
2022-12-19T00:33:13.645Z,11.77
2022-12-19T00:35:40.959Z,11.83
2022-12-19T00:38:10.007Z,11.23
2022-12-19T00:40:36.539Z,10.97
2022-12-19T00:43:03.044Z,10.65
2022-12-19T00:45:29.645Z,11.30
2022-12-19T00:47:57.109Z,11.53
2022-12-19T00:50:23.786Z,11.03
2022-12-19T00:52:50.291Z,10.67
2022-12-19T00:55:19.134Z,11.40
2022-12-19T00:57:46.590Z,11.30
2022-12-19T01:00:13.401Z,10.87
2022-12-19T01:02:40.072Z,11.23
2022-12-19T01:05:06.868Z,11.00
2022-12-19T01:07:33.397Z,10.50
2022-12-19T01:10:00.659Z,10.30
2022-12-19T01:12:46.476Z,10.90
2022-12-19T01:15:23.006Z,11.27
2022-12-19T01:17:50.323Z,10.13
2022-12-19T01:20:29.035Z,10.50
2022-12-19T01:22:56.921Z,10.93
2022-12-19T01:25:26.204Z,11.43
2022-12-19T01:27:54.270Z,10.27
2022-12-19T01:30:20.826Z,11.90
2022-12-19T01:32:47.878Z,11.17
2022-12-19T01:35:18.850Z,11.23
2022-12-19T01:37:48.681Z,10.73
2022-12-19T01:40:16.150Z,11.07
2022-12-19T01:42:42.694Z,11.30
2022-12-19T01:45:12.145Z,11.00
2022-12-19T01:47:46.301Z,11.33
2022-12-19T01:50:18.199Z,11.23
2022-12-19T01:52:44.812Z,15.07
2022-12-19T01:55:11.740Z,12.10
2022-12-19T01:57:38.470Z,11.57
2022-12-19T02:00:05.717Z,11.17
2022-12-19T02:02:45.227Z,11.10
2022-12-19T02:05:11.953Z,10.77
2022-12-19T02:07:38.668Z,11.87
2022-12-19T02:10:05.709Z,11.73
2022-12-19T02:12:36.923Z,11.47
2022-12-19T02:15:04.345Z,10.97
2022-12-19T02:17:32.883Z,12.20
2022-12-19T02:20:16.255Z,12.27
2022-12-19T02:22:52.070Z,11.23
2022-12-19T02:25:34.177Z,12.30
2022-12-19T02:28:07.320Z,12.63
2022-12-19T02:30:33.916Z,12.23
2022-12-19T02:33:03.591Z,12.13
2022-12-19T02:35:33.047Z,11.23
2022-12-19T02:38:06.779Z,11.67
2022-12-19T02:40:42.061Z,12.30
2022-12-19T02:43:10.526Z,12.37
2022-12-19T02:45:39.027Z,11.57
2022-12-19T02:48:09.064Z,12.10
2022-12-19T02:50:41.695Z,11.87
2022-12-19T02:53:10.784Z,11.37
2022-12-19T02:55:42.593Z,10.53
2022-12-19T02:58:16.274Z,11.37
2022-12-19T03:00:54.580Z,11.63
2022-12-19T03:03:26.908Z,10.70
2022-12-19T03:06:12.866Z,12.13
2022-12-19T03:08:53.915Z,11.20
2022-12-19T03:11:22.224Z,10.07
2022-12-19T03:13:58.092Z,11.97
2022-12-19T03:16:25.024Z,10.33
2022-12-19T03:18:55.117Z,12.10
2022-12-19T03:21:21.674Z,11.30
2022-12-19T03:23:49.415Z,10.83
2022-12-19T03:26:21.113Z,12.10
2022-12-19T03:28:56.224Z,11.30
2022-12-19T03:31:24.644Z,11.50
2022-12-19T03:33:54.414Z,11.53
2022-12-19T03:36:24.300Z,11.77
2022-12-19T03:38:51.253Z,11.83
2022-12-19T03:41:38.632Z,11.33
2022-12-19T03:44:06.794Z,11.60
2022-12-19T03:46:36.328Z,11.17
2022-12-19T03:49:02.962Z,11.77
2022-12-19T03:51:31.861Z,11.93
2022-12-19T03:54:01.333Z,10.83
2022-12-19T03:56:42.443Z,11.27
2022-12-19T03:59:27.709Z,11.47
2022-12-19T04:01:55.112Z,11.27
2022-12-19T04:04:22.541Z,11.07
2022-12-19T04:06:49.435Z,11.20
2022-12-19T04:09:22.293Z,11.40
2022-12-19T04:11:54.259Z,11.33
2022-12-19T04:14:24.823Z,11.47
2022-12-19T04:16:55.136Z,10.77
2022-12-19T04:19:25.406Z,11.77
2022-12-19T04:21:53.252Z,10.80
2022-12-19T04:24:22.607Z,11.87
2022-12-19T04:26:51.601Z,10.60
2022-12-19T04:29:18.300Z,10.90
2022-12-19T04:31:44.936Z,10.83
2022-12-19T04:34:11.516Z,11.10
2022-12-19T04:36:38.235Z,11.03
2022-12-19T04:39:04.758Z,10.60
2022-12-19T04:41:31.709Z,10.87
2022-12-19T04:43:58.245Z,11.50
2022-12-19T04:46:24.788Z,11.43
2022-12-19T04:48:51.373Z,11.80
2022-12-19T04:51:18.015Z,11.00
2022-12-19T04:53:44.575Z,11.37
2022-12-19T04:56:11.119Z,10.87
2022-12-19T04:58:37.627Z,11.67
2022-12-19T05:01:05.295Z,11.80
2022-12-19T05:03:32.605Z,11.37
2022-12-19T05:06:05.228Z,11.67
2022-12-19T05:08:31.765Z,11.47
2022-12-19T05:11:02.000Z,11.60
2022-12-19T05:13:29.123Z,12.40
2022-12-19T05:16:03.064Z,11.27
2022-12-19T05:18:29.964Z,12.27
2022-12-19T05:20:56.576Z,11.67
2022-12-19T05:23:23.211Z,12.53
2022-12-19T05:25:50.097Z,12.27
2022-12-19T05:28:17.101Z,12.53
2022-12-19T05:30:47.765Z,12.37
2022-12-19T05:33:17.170Z,12.23
2022-12-19T05:35:43.887Z,11.93
2022-12-19T05:38:10.434Z,12.90
2022-12-19T05:40:36.963Z,13.77
2022-12-19T05:43:03.933Z,12.83
2022-12-19T05:45:30.566Z,13.03
2022-12-19T05:48:01.171Z,12.70
2022-12-19T05:50:28.253Z,12.90
2022-12-19T05:52:54.784Z,13.10
2022-12-19T05:55:21.434Z,11.97
2022-12-19T05:57:47.994Z,12.60
2022-12-19T06:00:16.182Z,13.07
2022-12-19T06:02:42.813Z,13.40
2022-12-19T06:05:09.453Z,13.20
2022-12-19T06:07:35.933Z,12.87
2022-12-19T06:10:02.514Z,12.73
2022-12-19T06:12:29.033Z,13.60
2022-12-19T06:14:55.564Z,13.07
2022-12-19T06:17:22.135Z,14.33
2022-12-19T06:19:48.705Z,14.17
2022-12-19T06:22:15.471Z,12.83
2022-12-19T06:24:41.994Z,13.47
2022-12-19T06:27:08.488Z,12.93
2022-12-19T06:29:35.023Z,13.77
2022-12-19T06:32:01.557Z,14.03
2022-12-19T06:35:02.243Z,13.80
2022-12-19T06:37:14.580Z,14.07
2022-12-19T06:39:41.075Z,14.77
2022-12-19T06:42:24.353Z,14.03
2022-12-19T06:44:56.152Z,18.80
2022-12-19T06:47:23.942Z,15.43
2022-12-19T06:49:50.515Z,14.40
2022-12-19T06:52:17.064Z,14.13
2022-12-19T06:54:43.615Z,15.23
2022-12-19T06:57:10.153Z,17.60
2022-12-19T06:59:36.682Z,21.03
2022-12-19T07:02:06.123Z,18.13
2022-12-19T07:04:36.688Z,14.60
2022-12-19T07:07:03.538Z,14.50
2022-12-19T07:09:30.523Z,15.47
2022-12-19T07:11:57.123Z,18.30
2022-12-19T07:14:23.775Z,15.73
2022-12-19T07:16:51.517Z,14.73
2022-12-19T07:19:18.406Z,16.33
2022-12-19T07:21:45.012Z,14.60
2022-12-19T07:24:12.318Z,14.23
2022-12-19T07:26:38.924Z,15.73
2022-12-19T07:29:05.564Z,23.90
2022-12-19T07:31:34.792Z,21.10
2022-12-19T07:34:05.347Z,17.60
2022-12-19T07:36:31.908Z,14.97
2022-12-19T07:38:58.409Z,15.33
2022-12-19T07:41:25.057Z,15.37
2022-12-19T07:43:51.605Z,15.57
2022-12-19T07:46:18.153Z,16.00
2022-12-19T07:48:44.754Z,15.57
2022-12-19T07:51:11.331Z,15.17
2022-12-19T07:53:37.839Z,15.77
2022-12-19T07:56:04.443Z,15.63
2022-12-19T07:58:31.081Z,17.30
2022-12-19T08:00:58.546Z,15.73
2022-12-19T08:03:25.363Z,16.37
2022-12-19T08:05:52.083Z,16.03
2022-12-19T08:08:18.619Z,15.90
2022-12-19T08:10:45.194Z,15.60
2022-12-19T08:13:11.758Z,16.23
2022-12-19T08:15:38.284Z,15.27
2022-12-19T08:18:04.785Z,15.33
2022-12-19T08:20:31.306Z,16.13
2022-12-19T08:22:57.843Z,15.97
2022-12-19T08:25:24.556Z,15.67
2022-12-19T08:27:51.091Z,16.03
2022-12-19T08:30:17.686Z,16.07
2022-12-19T08:32:45.244Z,15.43
2022-12-19T08:35:11.944Z,15.27
2022-12-19T08:37:38.759Z,16.87
2022-12-19T08:40:05.536Z,16.60
2022-12-19T08:42:33.602Z,15.47
2022-12-19T08:45:00.183Z,16.53
2022-12-19T08:47:26.753Z,16.80
2022-12-19T08:49:53.335Z,16.33
2022-12-19T08:52:19.877Z,15.87
2022-12-19T08:54:46.382Z,16.80
2022-12-19T08:57:13.023Z,15.03
2022-12-19T08:59:39.550Z,17.40
2022-12-19T09:02:07.069Z,17.13
2022-12-19T09:05:57.732Z,16.37
2022-12-19T09:07:20.267Z,15.70
2022-12-19T09:09:46.832Z,16.83
2022-12-19T09:12:14.447Z,16.77
2022-12-19T09:14:41.059Z,16.37
2022-12-19T09:17:07.733Z,16.67
2022-12-19T09:19:34.435Z,17.03
2022-12-19T09:22:01.134Z,17.20
2022-12-19T09:24:27.838Z,16.80
2022-12-19T09:26:54.397Z,16.53
2022-12-19T09:29:22.075Z,17.27
2022-12-19T09:31:56.481Z,17.13
2022-12-19T09:34:37.290Z,17.30
2022-12-19T09:37:09.278Z,16.50
2022-12-19T09:39:43.134Z,17.33
2022-12-19T09:42:12.425Z,16.70
2022-12-19T09:44:54.580Z,16.50
2022-12-19T09:47:25.271Z,15.90
2022-12-19T09:49:52.204Z,16.43
2022-12-19T09:52:21.769Z,17.07
2022-12-19T09:55:17.263Z,16.77
2022-12-19T09:57:55.595Z,15.77
2022-12-19T10:00:22.693Z,15.83
2022-12-19T10:02:54.251Z,17.00
2022-12-19T10:05:55.725Z,16.33
2022-12-19T10:08:19.147Z,16.63
2022-12-19T10:12:46.410Z,17.80
2022-12-19T10:13:49.320Z,18.17
2022-12-19T10:16:24.885Z,18.30
2022-12-19T10:18:56.806Z,16.87
2022-12-19T10:24:41.164Z,15.13
2022-12-19T10:27:35.989Z,17.70
2022-12-19T10:30:18.890Z,16.20
2022-12-19T10:32:56.801Z,15.87
2022-12-19T10:35:28.556Z,17.90
2022-12-19T10:38:07.348Z,16.20
2022-12-19T10:40:34.910Z,16.27
2022-12-19T10:43:32.747Z,18.73
2022-12-19T10:46:02.664Z,18.03
2022-12-19T10:48:30.727Z,18.30
2022-12-19T10:50:58.033Z,17.93
2022-12-19T10:53:30.680Z,17.40
2022-12-19T10:56:01.419Z,16.57
2022-12-19T10:58:37.833Z,17.63
2022-12-19T11:01:05.174Z,21.70
2022-12-19T11:03:33.027Z,24.87
2022-12-19T11:05:59.871Z,22.73
2022-12-19T11:08:31.411Z,18.07
2022-12-19T11:13:16.216Z,22.30
2022-12-19T11:18:49.785Z,25.60
2022-12-19T11:20:48.571Z,16.80
2022-12-19T11:29:17.291Z,16.50
2022-12-19T11:29:36.907Z,17.07
2022-12-19T11:30:38.645Z,22.93
2022-12-19T11:30:44.328Z,17.60
2022-12-19T11:33:23.753Z,17.83
2022-12-19T11:35:51.701Z,27.47
2022-12-19T11:38:28.517Z,19.43
2022-12-19T11:40:57.000Z,18.87
2022-12-19T11:43:47.374Z,33.80
2022-12-19T11:46:25.335Z,17.37
2022-12-19T11:49:08.575Z,37.60
2022-12-19T11:51:42.670Z,48.67
2022-12-19T11:54:38.411Z,20.63
2022-12-19T11:57:04.911Z,30.80
2022-12-19T11:59:32.908Z,42.37
2022-12-19T12:02:18.174Z,92.30
2022-12-19T12:04:44.718Z,46.07
2022-12-19T12:07:18.017Z,25.83
2022-12-19T12:12:29.654Z,18.80
2022-12-19T12:20:44.998Z,18.10
2022-12-19T12:30:37.486Z,17.07
2022-12-19T12:31:07.990Z,16.87
2022-12-19T12:31:12.176Z,16.33
2022-12-19T12:31:41.328Z,16.83
2022-12-19T12:31:50.788Z,18.20
2022-12-19T12:31:55.328Z,16.80
2022-12-19T12:35:42.531Z,16.53
2022-12-19T12:40:08.183Z,17.03
2022-12-19T12:42:52.857Z,17.00
2022-12-19T12:45:19.728Z,17.30
2022-12-19T12:47:48.080Z,17.20
2022-12-19T12:50:18.435Z,18.13
2022-12-19T12:52:47.936Z,16.50
2022-12-19T12:55:17.867Z,18.67
2022-12-19T12:57:44.443Z,16.60
2022-12-19T13:00:14.038Z,18.57
2022-12-19T13:02:41.099Z,16.97
2022-12-19T13:05:22.949Z,18.00
2022-12-19T13:07:53.236Z,18.10
2022-12-19T13:10:27.098Z,16.13
2022-12-19T13:13:00.994Z,16.70
2022-12-19T13:15:27.539Z,17.93
2022-12-19T13:17:54.074Z,17.17
2022-12-19T13:20:29.482Z,16.17
2022-12-19T13:22:58.835Z,17.23
2022-12-19T13:25:34.393Z,16.00
2022-12-19T13:28:03.665Z,27.23
2022-12-19T13:30:31.182Z,17.73
2022-12-19T13:33:00.849Z,17.70
2022-12-19T13:36:49.304Z,21.63
2022-12-19T13:39:59.501Z,19.40
2022-12-19T13:41:44.437Z,18.13
2022-12-19T13:44:12.087Z,21.97
2022-12-19T13:46:43.011Z,36.70
2022-12-19T13:49:12.518Z,27.80
2022-12-19T13:51:43.371Z,19.23
2022-12-19T13:54:20.625Z,22.40
2022-12-19T13:56:47.277Z,30.77
2022-12-19T13:59:13.860Z,21.03
2022-12-19T14:01:40.956Z,19.60
2022-12-19T14:04:12.545Z,18.87
2022-12-19T14:06:40.958Z,19.20
2022-12-19T14:11:23.470Z,25.67
2022-12-19T14:12:25.084Z,20.77
2022-12-19T14:15:13.538Z,19.53
2022-12-19T14:17:40.391Z,20.53
2022-12-19T14:20:48.879Z,19.13
2022-12-19T14:23:05.048Z,19.80
2022-12-19T14:28:17.995Z,20.23
2022-12-19T14:28:30.926Z,21.30
2022-12-19T14:31:02.534Z,20.53
2022-12-19T14:33:58.403Z,23.60
2022-12-19T14:36:30.394Z,22.00
2022-12-19T14:39:26.610Z,21.73
2022-12-19T14:42:04.374Z,19.60
2022-12-19T14:51:42.576Z,20.57
2022-12-19T14:54:16.486Z,22.07
2022-12-19T14:54:20.952Z,20.87
2022-12-19T14:54:24.479Z,19.97
2022-12-19T14:56:30.993Z,22.27
2022-12-19T14:58:59.729Z,22.90
2022-12-19T15:01:28.569Z,22.77
2022-12-19T15:04:52.945Z,23.03
2022-12-19T15:07:07.035Z,22.47
2022-12-19T15:11:08.672Z,23.43
2022-12-19T15:14:49.152Z,22.87
2022-12-19T15:15:50.576Z,21.40
2022-12-19T15:18:17.236Z,23.20
2022-12-19T15:20:43.770Z,23.00
2022-12-19T15:23:10.340Z,22.30
2022-12-19T15:26:02.711Z,22.70
2022-12-19T15:28:30.080Z,22.83
2022-12-19T15:30:59.176Z,22.97
2022-12-19T15:33:25.819Z,23.27
2022-12-19T15:35:52.319Z,25.70
2022-12-19T15:38:18.762Z,24.00
2022-12-19T15:40:45.368Z,25.43
2022-12-19T15:43:53.592Z,24.73
2022-12-19T15:46:09.887Z,23.33
2022-12-19T15:48:38.153Z,25.03
2022-12-19T15:51:04.766Z,23.60
2022-12-19T15:53:40.582Z,23.93
2022-12-19T15:56:28.021Z,25.77
2022-12-19T15:58:55.615Z,23.73
2022-12-19T16:01:22.455Z,23.90
2022-12-19T16:03:49.876Z,23.80
2022-12-19T16:06:16.713Z,24.00
2022-12-19T16:08:43.228Z,23.07
2022-12-19T16:11:16.362Z,26.43
2022-12-19T16:13:45.151Z,24.40
2022-12-19T16:16:15.865Z,26.93
2022-12-19T16:18:43.006Z,26.67
2022-12-19T16:21:31.612Z,25.03
2022-12-19T16:24:00.689Z,26.07
2022-12-19T16:26:32.815Z,25.57
2022-12-19T16:28:59.471Z,26.00
2022-12-19T16:31:27.134Z,25.23
2022-12-19T16:33:54.066Z,26.73
2022-12-19T16:36:20.912Z,24.07
2022-12-19T16:38:47.695Z,24.90
2022-12-19T16:41:19.321Z,24.27
2022-12-19T16:43:46.282Z,26.37
2022-12-19T16:46:20.974Z,25.73
2022-12-19T16:48:48.066Z,24.77
2022-12-19T16:51:21.663Z,29.40
2022-12-19T16:53:52.448Z,27.03
2022-12-19T16:56:24.510Z,23.83
2022-12-19T16:58:51.779Z,24.93
2022-12-19T17:01:18.617Z,27.30
2022-12-19T17:03:45.772Z,27.83
2022-12-19T17:06:13.626Z,33.93
2022-12-19T17:08:40.125Z,34.20
2022-12-19T17:11:12.026Z,30.37
2022-12-19T17:13:38.570Z,27.77
2022-12-19T17:16:05.316Z,25.43
2022-12-19T17:18:33.287Z,105.60
2022-12-19T17:20:59.869Z,37.20
2022-12-19T17:23:29.001Z,28.13
2022-12-19T17:25:55.986Z,25.03
2022-12-19T17:28:22.643Z,26.77
2022-12-19T17:30:51.096Z,27.90
2022-12-19T17:33:18.587Z,24.77
2022-12-19T17:35:45.433Z,26.53
2022-12-19T17:38:15.846Z,25.37
2022-12-19T17:40:42.692Z,32.37
2022-12-19T17:43:10.234Z,29.70
2022-12-19T17:45:36.746Z,26.77
2022-12-19T17:48:05.504Z,25.10
2022-12-19T17:50:38.291Z,26.63
2022-12-19T17:53:05.292Z,26.47
2022-12-19T17:55:32.406Z,23.67
2022-12-19T17:57:58.991Z,28.23
2022-12-19T18:00:30.691Z,24.83
2022-12-19T18:02:59.616Z,26.70
2022-12-19T18:05:27.959Z,23.67
2022-12-19T18:07:55.020Z,23.33
2022-12-19T18:10:22.954Z,27.43
2022-12-19T18:12:49.888Z,25.87
2022-12-19T18:15:17.252Z,25.00
2022-12-19T18:17:44.162Z,25.00
2022-12-19T18:20:31.220Z,24.40
2022-12-19T18:22:59.062Z,24.67
2022-12-19T18:25:27.251Z,23.67
2022-12-19T18:27:53.862Z,24.53
2022-12-19T18:30:22.180Z,23.60
2022-12-19T18:32:52.788Z,25.05
2022-12-19T18:35:23.783Z,25.97
2022-12-19T18:37:50.895Z,25.40
2022-12-19T18:40:22.272Z,25.13
2022-12-19T18:42:49.942Z,23.43
2022-12-19T18:45:17.730Z,24.07
2022-12-19T18:47:51.335Z,25.47
2022-12-19T18:50:20.618Z,23.80
2022-12-19T18:52:48.157Z,23.40
2022-12-19T18:55:34.928Z,23.40
2022-12-19T18:58:01.461Z,23.60
2022-12-19T19:00:28.076Z,23.57
2022-12-19T19:02:59.878Z,22.83
2022-12-19T19:05:28.074Z,24.50
2022-12-19T19:07:56.894Z,22.83
2022-12-19T19:10:25.226Z,22.87
2022-12-19T19:13:00.816Z,23.27
2022-12-19T19:15:31.040Z,22.03
2022-12-19T19:18:02.477Z,23.10
2022-12-19T19:20:30.960Z,23.03
2022-12-19T19:22:58.063Z,23.00
2022-12-19T19:25:25.098Z,22.60
2022-12-19T19:27:51.933Z,21.70
2022-12-19T19:30:18.744Z,22.03
2022-12-19T19:32:49.703Z,22.10
2022-12-19T19:35:18.806Z,22.43
2022-12-19T19:37:46.761Z,21.47
2022-12-19T19:40:13.590Z,21.43
2022-12-19T19:42:40.132Z,21.97
2022-12-19T19:45:07.360Z,21.50
2022-12-19T19:47:37.127Z,27.60
2022-12-19T19:50:04.613Z,21.40
2022-12-19T19:52:31.145Z,20.27
2022-12-19T19:54:57.760Z,25.67
2022-12-19T19:57:24.356Z,22.40
2022-12-19T19:59:50.879Z,21.40
2022-12-19T20:02:17.868Z,21.27
2022-12-19T20:04:45.742Z,21.23
2022-12-19T20:07:12.721Z,20.17
2022-12-19T20:09:39.739Z,19.77
2022-12-19T20:12:06.475Z,19.97
2022-12-19T20:14:33.005Z,19.20
2022-12-19T20:16:59.561Z,19.30
2022-12-19T20:19:26.155Z,18.97
2022-12-19T20:21:52.755Z,18.43
2022-12-19T20:24:19.315Z,19.57
2022-12-19T20:26:45.904Z,18.10
2022-12-19T20:29:12.539Z,20.47
2022-12-19T20:31:39.709Z,19.40
2022-12-19T20:34:06.429Z,18.83
2022-12-19T20:36:33.126Z,19.17
2022-12-19T20:38:59.624Z,18.00
2022-12-19T20:41:26.215Z,19.40
2022-12-19T20:43:53.148Z,19.63
2022-12-19T20:46:20.800Z,18.80
2022-12-19T20:48:48.081Z,19.27
2022-12-19T20:51:15.731Z,17.80
2022-12-19T20:53:42.819Z,17.83
2022-12-19T20:56:11.050Z,18.57
2022-12-19T20:58:37.927Z,17.30
2022-12-19T21:01:08.925Z,18.10
2022-12-19T21:03:36.121Z,16.53
2022-12-19T21:06:03.505Z,17.90
2022-12-19T21:08:30.927Z,17.70
2022-12-19T21:10:57.490Z,18.07
2022-12-19T21:13:24.115Z,17.37
2022-12-19T21:15:58.767Z,19.40
2022-12-19T21:18:26.085Z,19.70
2022-12-19T21:20:52.961Z,19.40
2022-12-19T21:23:19.473Z,18.60
2022-12-19T21:25:46.072Z,17.87
2022-12-19T21:28:12.652Z,17.50
2022-12-19T21:30:39.283Z,20.07
2022-12-19T21:33:08.515Z,18.47
2022-12-19T21:35:35.667Z,18.87
2022-12-19T21:38:02.517Z,18.33
2022-12-19T21:40:29.164Z,19.07
2022-12-19T21:42:55.689Z,18.80
2022-12-19T21:45:22.261Z,18.77
2022-12-19T21:47:48.802Z,18.13
2022-12-19T21:50:15.340Z,18.13
2022-12-19T21:52:42.034Z,18.23
2022-12-19T21:55:09.027Z,18.83
2022-12-19T21:57:41.884Z,17.90
2022-12-19T22:00:09.705Z,17.07
2022-12-19T22:02:36.727Z,18.53
2022-12-19T22:05:03.874Z,17.70
2022-12-19T22:07:30.525Z,18.13
2022-12-19T22:09:57.013Z,18.80
2022-12-19T22:12:23.717Z,19.30
2022-12-19T22:14:52.299Z,19.67
2022-12-19T22:17:18.855Z,19.37
2022-12-19T22:19:45.481Z,18.87
2022-12-19T22:22:12.338Z,18.53
2022-12-19T22:24:38.893Z,18.73
2022-12-19T22:27:05.427Z,19.10
2022-12-19T22:29:36.444Z,19.73
2022-12-19T22:32:04.076Z,19.10
2022-12-19T22:34:30.726Z,19.30
2022-12-19T22:36:57.340Z,18.90
2022-12-19T22:39:24.039Z,18.53
2022-12-19T22:41:50.581Z,19.03
2022-12-19T22:44:22.208Z,18.03
2022-12-19T22:46:49.025Z,20.37
2022-12-19T22:49:15.677Z,18.53
2022-12-19T22:51:42.525Z,18.97
2022-12-19T22:54:10.157Z,18.30
2022-12-19T22:56:36.893Z,18.60
2022-12-19T22:59:04.864Z,18.10
2022-12-19T23:01:35.693Z,19.83
2022-12-19T23:04:03.183Z,19.13
2022-12-19T23:06:31.135Z,18.63
2022-12-19T23:08:57.880Z,17.67
2022-12-19T23:11:29.830Z,18.20
2022-12-19T23:13:56.351Z,18.30
2022-12-19T23:16:22.950Z,18.87
2022-12-19T23:18:49.536Z,18.37
2022-12-19T23:21:20.327Z,19.13
2022-12-19T23:23:47.908Z,18.07
2022-12-19T23:26:16.408Z,18.97
2022-12-19T23:28:43.893Z,18.93
2022-12-19T23:31:11.888Z,18.73
2022-12-19T23:33:38.574Z,19.53
2022-12-19T23:36:05.605Z,19.67
2022-12-19T23:38:32.159Z,18.77
2022-12-19T23:41:02.656Z,18.80
2022-12-19T23:43:29.770Z,19.13
2022-12-19T23:45:56.378Z,19.17
2022-12-19T23:48:26.371Z,19.80
2022-12-19T23:51:00.279Z,18.80
2022-12-19T23:53:27.135Z,18.17
2022-12-19T23:55:53.902Z,21.10
2022-12-19T23:58:24.404Z,20.73
